Nearby METAR Reports

Aktualna pogoda na lotniskach (dane METAR)

 

EPGD - Gdansk/Rebiechow, Poland
Distance from station: ENE 27mi, 44km
Updated: Sat, 03-Dec-2022 11:00am PST
Light snow grains, Mist, Overcast
Light snow grains, Mist, Overcast
 Wind from SE
Wind: SE 7 mph , 11 km/h
Temperature: 25°F , -4°C
Wind Chill: 17°F , -8°C
Dew Point: 25°F , -4°C
Humidity: 100%
Barometer: 30.3 inHg , 1026 hPa
Summary: Light snow grains, Mist
Clouds: Overcast
Visibility: 2 miles , 4 km
Cloud details: Overcast 300 ft
2022/12/03 19:00 EPGD 031900Z 13006KT 3500 -SG BR OVC003 M04/M04 Q1026
EPSC - Szczecin/Golenio, Poland
Distance from station: WSW 128mi, 205km
Updated: Sat, 03-Dec-2022 11:00am PST
Mostly Cloudy
Mostly Cloudy
 Wind from ENE
Wind: ENE 6 mph , 9 km/h
Temperature: 30°F , -1°C
Wind Chill: 24°F , -4°C
Dew Point: 27°F , -3°C
Humidity: 86%
Barometer: 30.27 inHg , 1025 hPa
Clouds: Mostly Cloudy
Visibility: 5 miles , 8 km
Cloud details: Mostly Cloudy 1000 ft
2022/12/03 19:00 EPSC 031900Z 07005KT 8000 BKN010 M01/M03 Q1025
 
EPPO - Poznan/Lawica, Poland
Distance from station: SSW 131mi, 210km
Updated: Sat, 03-Dec-2022 11:00am PST
Mist, Overcast
Mist, Overcast
 Wind from ENE
Wind: ENE 7 mph , 11 km/h
Temperature: 30°F , -1°C
Wind Chill: 23°F , -5°C
Dew Point: 28°F , -2°C
Humidity: 93%
Barometer: 30.24 inHg , 1024 hPa
Summary: Mist
Clouds: Overcast
Visibility: 2 miles , 4 km
Cloud details: Mostly Cloudy 700 ft
Overcast 2300 ft
2022/12/03 19:00 EPPO 031900Z 07006KT 3800 BR BKN007 OVC023 M01/M02 Q1024
EPLL - Lodz/Lublinek, Poland
Distance from station: SSE 184mi, 296km
Updated: Sat, 03-Dec-2022 11:00am PST
Mist, Overcast
Mist, Overcast
 Wind from E
Wind: E 7 mph , 11 km/h
Temperature: 32°F , 0°C
Wind Chill: 25°F , -4°C
Dew Point: 32°F , 0°C
Humidity: 100%
Barometer: 30.24 inHg , 1024 hPa
Summary: Mist
Clouds: Overcast
Visibility: 1 mile , 2 km
Cloud details: Overcast 200 ft
2022/12/03 19:00 EPLL 031900Z 10006KT 070V140 1500 BR OVC002 00/M00 Q1024
 
EPWA - Warsaw/Okecie, Poland
Distance from station: SE 191mi, 307km
Updated: Sat, 03-Dec-2022 11:00am PST
Mist, Overcast
Mist, Overcast
 Wind from ESE
Wind: ESE 12 mph , 19 km/h
Temperature: 34°F , 1°C
Wind Chill: 25°F , -4°C
Dew Point: 32°F , 0°C
Humidity: 93%
Barometer: 30.3 inHg , 1026 hPa
Summary: Mist
Clouds: Overcast
Visibility: 3 miles , 5 km
Cloud details: Overcast 600 ft
2022/12/03 19:00 EPWA 031900Z 11010KT 5000 BR OVC006 01/00 Q1026 TEMPO BKN004
EPWR - Wroclaw/Strachow, Poland
Distance from station: S 219mi, 352km
Updated: Sat, 03-Dec-2022 11:00am PST
Overcast
Overcast
 Wind from E
Wind: E 9 mph , 15 km/h
Temperature: 36°F , 2°C
Wind Chill: 29°F , -2°C
Dew Point: 32°F , 0°C
Humidity: 87%
Barometer: 30.18 inHg , 1022 hPa
Clouds: Overcast
Visibility: 5 miles , 8 km
Cloud details: Overcast 2700 ft
2022/12/03 19:00 EPWR 031900Z 10008KT 8000 OVC027 02/M00 Q1022

Metar display script from Saratoga-Weather.org